createdAt,value
2022-08-08T00:00:50.839Z,17.70
2022-08-08T00:02:30.903Z,17.70
2022-08-08T00:05:09.789Z,17.70
2022-08-08T00:07:47.347Z,17.40
2022-08-08T00:10:35.299Z,17.30
2022-08-08T00:14:16.473Z,17.10
2022-08-08T00:16:39.214Z,17.10
2022-08-08T00:19:18.569Z,17.30
2022-08-08T00:21:49.681Z,17.30
2022-08-08T00:24:29.686Z,17.20
2022-08-08T00:27:08.792Z,17.20
2022-08-08T00:29:49.744Z,17.20
2022-08-08T00:32:38.836Z,17.40
2022-08-08T00:35:22.290Z,17.40
2022-08-08T00:38:07.461Z,17.40
2022-08-08T00:41:06.775Z,17.50
2022-08-08T00:44:03.236Z,17.50
2022-08-08T00:46:57.595Z,17.50
2022-08-08T00:49:37.409Z,17.50
2022-08-08T00:52:24.471Z,17.50
2022-08-08T00:55:53.411Z,17.30
2022-08-08T00:58:12.700Z,16.80
2022-08-08T01:01:12.215Z,16.90
2022-08-08T01:04:08.763Z,17.00
2022-08-08T01:07:01.341Z,16.70
2022-08-08T01:09:58.780Z,16.80
2022-08-08T01:12:43.668Z,16.90
2022-08-08T01:15:37.104Z,17.00
2022-08-08T01:18:53.153Z,17.00
2022-08-08T01:22:12.166Z,17.00
2022-08-08T01:24:38.646Z,16.90
2022-08-08T01:27:44.481Z,16.70
2022-08-08T01:30:31.548Z,16.60
2022-08-08T01:33:24.077Z,16.50
2022-08-08T01:36:25.162Z,16.60
2022-08-08T01:39:04.549Z,16.50
2022-08-08T01:41:34.354Z,16.40
2022-08-08T01:45:00.515Z,16.40
2022-08-08T01:48:23.614Z,16.50
2022-08-08T01:51:31.631Z,16.60
2022-08-08T01:55:19.162Z,16.60
2022-08-08T01:58:17.425Z,16.50
2022-08-08T02:01:04.692Z,16.30
2022-08-08T02:03:55.433Z,16.10
2022-08-08T02:06:49.456Z,15.90
2022-08-08T02:10:03.182Z,15.80
2022-08-08T02:12:51.247Z,15.80
2022-08-08T02:15:45.531Z,15.90
2022-08-08T02:18:43.768Z,16.00
2022-08-08T02:21:42.758Z,16.10
2022-08-08T02:24:20.031Z,16.10
2022-08-08T02:27:05.031Z,15.90
2022-08-08T02:29:46.668Z,15.50
2022-08-08T02:32:42.896Z,15.10
2022-08-08T02:36:03.990Z,15.00
2022-08-08T02:38:50.844Z,15.00
2022-08-08T02:41:58.746Z,14.90
2022-08-08T02:45:04.196Z,14.70
2022-08-08T02:48:26.109Z,14.70
2022-08-08T02:51:30.151Z,14.60
2022-08-08T02:54:50.460Z,14.50
2022-08-08T02:57:44.452Z,14.30
2022-08-08T03:00:33.528Z,14.40
2022-08-08T03:05:00.186Z,14.40
2022-08-08T03:06:24.212Z,14.30
2022-08-08T03:09:33.010Z,14.30
2022-08-08T03:12:36.521Z,14.30
2022-08-08T03:16:05.692Z,14.30
2022-08-08T03:18:57.234Z,14.50
2022-08-08T03:21:40.556Z,14.70
2022-08-08T03:24:08.177Z,14.80
2022-08-08T03:26:42.890Z,15.00
2022-08-08T03:29:20.964Z,15.20
2022-08-08T03:32:12.323Z,15.20
2022-08-08T03:34:41.096Z,15.30
2022-08-08T03:38:00.030Z,15.30
2022-08-08T03:40:02.348Z,15.40
2022-08-08T03:42:31.342Z,15.30
2022-08-08T03:44:58.609Z,15.40
2022-08-08T03:47:39.450Z,15.50
2022-08-08T03:50:20.461Z,15.50
2022-08-08T03:52:52.054Z,15.50
2022-08-08T03:55:58.064Z,15.60
2022-08-08T03:58:34.250Z,15.60
2022-08-08T04:01:24.323Z,15.70
2022-08-08T04:03:59.558Z,15.70
2022-08-08T04:06:29.368Z,15.60
2022-08-08T04:08:57.231Z,15.50
2022-08-08T04:11:25.510Z,15.50
2022-08-08T04:14:33.900Z,15.30
2022-08-08T04:16:40.991Z,15.20
2022-08-08T04:19:23.700Z,15.10
2022-08-08T04:21:52.414Z,15.20
2022-08-08T04:24:29.385Z,15.30
2022-08-08T04:26:59.121Z,15.40
2022-08-08T04:29:26.817Z,15.40
2022-08-08T04:31:59.163Z,15.40
2022-08-08T04:34:28.046Z,15.50
2022-08-08T04:36:58.798Z,15.50
2022-08-08T04:40:03.227Z,15.50
2022-08-08T04:42:15.627Z,15.40
2022-08-08T04:44:42.725Z,15.30
2022-08-08T04:47:15.053Z,15.30
2022-08-08T04:50:00.619Z,15.20
2022-08-08T04:52:33.771Z,15.10
2022-08-08T04:55:01.557Z,15.00
2022-08-08T04:57:28.693Z,15.00
2022-08-08T04:59:55.666Z,15.00
2022-08-08T05:02:30.662Z,15.00
2022-08-08T05:04:59.270Z,15.00
2022-08-08T05:07:26.914Z,15.00
2022-08-08T05:10:05.595Z,15.10
2022-08-08T05:12:36.735Z,15.20
2022-08-08T05:15:13.739Z,15.30
2022-08-08T05:17:54.431Z,15.40
2022-08-08T05:20:21.438Z,15.50
2022-08-08T05:22:51.358Z,15.60
2022-08-08T05:25:21.592Z,15.60
2022-08-08T05:27:48.420Z,15.60
2022-08-08T05:30:15.150Z,15.60
2022-08-08T05:32:42.862Z,15.50
2022-08-08T05:35:14.573Z,15.50
2022-08-08T05:37:52.947Z,15.40
2022-08-08T05:40:28.035Z,15.40
2022-08-08T05:43:03.143Z,15.40
2022-08-08T05:45:54.843Z,15.40
2022-08-08T05:48:28.696Z,15.40
2022-08-08T05:50:58.868Z,15.50
2022-08-08T05:54:24.321Z,15.50
2022-08-08T05:56:28.689Z,15.60
2022-08-08T05:59:05.941Z,15.80
2022-08-08T06:01:55.694Z,15.80
2022-08-08T06:04:27.251Z,16.00
2022-08-08T06:07:00.605Z,16.10
2022-08-08T06:09:58.753Z,16.20
2022-08-08T06:12:29.561Z,16.30
2022-08-08T06:15:00.176Z,16.30
2022-08-08T06:17:32.032Z,16.50
2022-08-08T06:20:16.302Z,16.60
2022-08-08T06:22:43.042Z,16.60
2022-08-08T06:25:10.357Z,16.70
2022-08-08T06:27:52.341Z,16.80
2022-08-08T06:30:28.262Z,16.90
2022-08-08T06:32:58.476Z,17.00
2022-08-08T06:36:04.711Z,17.20
2022-08-08T06:38:27.441Z,17.20
2022-08-08T06:41:03.894Z,17.40
2022-08-08T06:43:35.826Z,17.50
2022-08-08T06:46:09.227Z,17.50
2022-08-08T06:48:39.579Z,17.70
2022-08-08T06:51:11.238Z,17.80
2022-08-08T06:53:39.765Z,17.90
2022-08-08T06:56:09.359Z,18.00
2022-08-08T06:58:36.951Z,18.00
2022-08-08T07:01:11.582Z,18.00
2022-08-08T07:04:35.930Z,18.10
2022-08-08T07:07:09.676Z,18.30
2022-08-08T07:09:56.575Z,18.40
2022-08-08T07:12:38.963Z,18.50
2022-08-08T07:15:23.382Z,18.60
2022-08-08T07:18:34.978Z,18.70
2022-08-08T07:20:57.560Z,18.90
2022-08-08T07:24:00.954Z,19.00
2022-08-08T07:26:28.937Z,19.10
2022-08-08T07:29:05.862Z,19.30
2022-08-08T07:31:36.412Z,19.30
2022-08-08T07:34:09.120Z,19.40
2022-08-08T07:36:48.213Z,19.50
2022-08-08T07:39:22.439Z,19.60
2022-08-08T07:42:03.882Z,19.70
2022-08-08T07:44:37.735Z,19.90
2022-08-08T07:47:09.017Z,19.90
2022-08-08T07:49:40.247Z,19.90
2022-08-08T07:52:13.296Z,19.80
2022-08-08T07:54:58.480Z,19.90
2022-08-08T07:57:44.890Z,20.10
2022-08-08T08:00:17.116Z,19.90
2022-08-08T08:02:52.500Z,19.90
2022-08-08T08:05:26.385Z,19.90
2022-08-08T08:08:09.091Z,19.80
2022-08-08T08:10:38.374Z,20.00
2022-08-08T08:13:25.612Z,20.00
2022-08-08T08:16:11.425Z,19.90
2022-08-08T08:18:56.430Z,19.80
2022-08-08T08:21:44.022Z,19.80
2022-08-08T08:24:14.080Z,19.70
2022-08-08T08:26:46.825Z,19.90
2022-08-08T08:32:10.953Z,20.20
2022-08-08T08:34:43.292Z,20.00
2022-08-08T08:37:20.231Z,19.90
2022-08-08T08:40:01.195Z,20.10
2022-08-08T08:42:35.735Z,20.10
2022-08-08T08:45:10.304Z,20.20
2022-08-08T08:47:53.268Z,20.20
2022-08-08T08:53:54.869Z,20.40
2022-08-08T08:56:02.975Z,20.40
2022-08-08T08:58:41.992Z,20.30
2022-08-08T09:01:13.286Z,20.20
2022-08-08T09:03:50.979Z,20.30
2022-08-08T09:06:33.233Z,20.50
2022-08-08T09:09:35.127Z,20.70
2022-08-08T09:12:08.765Z,20.90
2022-08-08T09:14:42.893Z,21.00
2022-08-08T09:17:18.460Z,20.70
2022-08-08T09:22:00.537Z,20.30
2022-08-08T09:22:35.241Z,20.20
2022-08-08T09:25:04.490Z,20.40
2022-08-08T09:27:41.827Z,20.50
2022-08-08T09:30:20.080Z,20.50
2022-08-08T09:33:54.362Z,20.60
2022-08-08T09:35:49.689Z,20.90
2022-08-08T09:38:52.751Z,20.90
2022-08-08T09:41:54.843Z,21.10
2022-08-08T09:44:49.653Z,21.40
2022-08-08T09:48:05.119Z,21.50
2022-08-08T09:50:13.744Z,21.70
2022-08-08T09:52:58.496Z,21.80
2022-08-08T09:55:51.491Z,21.80
2022-08-08T09:58:28.077Z,21.70
2022-08-08T10:01:15.095Z,21.60
2022-08-08T10:04:02.301Z,21.50
2022-08-08T10:06:35.499Z,21.50
2022-08-08T10:09:03.338Z,21.60
2022-08-08T10:12:26.755Z,21.50
2022-08-08T10:14:28.159Z,21.30
2022-08-08T10:17:56.109Z,21.30
2022-08-08T10:20:00.132Z,21.20
2022-08-08T10:22:28.879Z,21.30
2022-08-08T10:25:03.369Z,21.40
2022-08-08T10:27:42.769Z,21.70
2022-08-08T10:30:16.477Z,22.00
2022-08-08T10:33:00.220Z,22.10
2022-08-08T10:36:08.313Z,22.30
2022-08-08T10:38:19.547Z,22.30
2022-08-08T10:40:53.144Z,22.50
2022-08-08T10:43:22.338Z,22.60
2022-08-08T10:45:56.109Z,22.60
2022-08-08T10:48:57.610Z,22.60
2022-08-08T10:51:31.453Z,22.60
2022-08-08T10:54:08.008Z,22.60
2022-08-08T10:56:35.675Z,22.70
2022-08-08T10:59:09.353Z,22.70
2022-08-08T11:01:39.194Z,22.70
2022-08-08T11:04:12.142Z,22.70
2022-08-08T11:06:42.063Z,22.70
2022-08-08T11:09:19.461Z,22.50
2022-08-08T11:12:04.570Z,22.60
2022-08-08T11:14:35.135Z,22.50
2022-08-08T11:17:04.057Z,22.60
2022-08-08T11:19:35.560Z,22.70
2022-08-08T11:22:04.579Z,22.70
2022-08-08T11:24:35.850Z,22.80
2022-08-08T11:27:10.561Z,22.70
2022-08-08T11:29:58.262Z,22.70
2022-08-08T11:32:41.641Z,22.60
2022-08-08T11:35:24.492Z,22.80
2022-08-08T11:38:35.701Z,22.80
2022-08-08T11:40:46.428Z,22.70
2022-08-08T11:43:18.976Z,22.70
2022-08-08T11:46:10.006Z,22.90
2022-08-08T11:48:38.650Z,22.90
2022-08-08T11:51:38.728Z,23.00
2022-08-08T11:53:59.014Z,23.30
2022-08-08T11:56:35.883Z,23.20
2022-08-08T11:59:10.764Z,23.30
2022-08-08T12:01:38.343Z,23.20
2022-08-08T12:04:07.799Z,23.10
2022-08-08T12:06:34.599Z,23.20
2022-08-08T12:09:07.428Z,23.30
2022-08-08T12:11:42.605Z,23.60
2022-08-08T12:14:11.606Z,24.00
2022-08-08T12:16:48.943Z,24.00
2022-08-08T12:19:16.212Z,23.80
2022-08-08T12:22:00.369Z,24.00
2022-08-08T12:24:46.158Z,24.10
2022-08-08T12:27:20.806Z,23.90
2022-08-08T12:29:59.130Z,23.80
2022-08-08T12:32:26.104Z,23.80
2022-08-08T12:35:16.893Z,23.90
2022-08-08T12:38:01.596Z,24.50
2022-08-08T12:40:54.289Z,24.60
2022-08-08T12:43:43.478Z,24.80
2022-08-08T12:46:19.456Z,24.80
2022-08-08T12:49:24.935Z,24.20
2022-08-08T12:51:58.989Z,23.70
2022-08-08T12:54:35.984Z,23.40
2022-08-08T12:57:23.367Z,23.50
2022-08-08T13:00:03.499Z,23.50
2022-08-08T13:02:51.049Z,23.30
2022-08-08T13:05:27.104Z,23.40
2022-08-08T13:08:17.895Z,23.50
2022-08-08T13:10:58.110Z,24.00
2022-08-08T13:13:35.185Z,24.00
2022-08-08T13:16:25.162Z,23.30
2022-08-08T13:18:57.619Z,23.00
2022-08-08T13:21:48.931Z,22.90
2022-08-08T13:24:23.614Z,23.00
2022-08-08T13:27:03.505Z,23.20
2022-08-08T13:29:40.799Z,23.40
2022-08-08T13:32:07.805Z,23.50
2022-08-08T13:34:39.925Z,23.70
2022-08-08T13:37:11.010Z,23.60
2022-08-08T13:39:54.232Z,23.60
2022-08-08T13:42:23.470Z,23.30
2022-08-08T13:44:56.309Z,23.10
2022-08-08T13:47:23.929Z,23.40
2022-08-08T13:50:35.492Z,23.60
2022-08-08T13:53:22.983Z,23.50
2022-08-08T13:56:01.211Z,23.40
2022-08-08T13:58:31.550Z,23.70
2022-08-08T14:01:17.749Z,23.80
2022-08-08T14:03:55.427Z,24.00
2022-08-08T14:06:32.995Z,24.10
2022-08-08T14:09:24.775Z,24.20
2022-08-08T14:11:49.063Z,24.20
2022-08-08T14:14:20.908Z,24.40
2022-08-08T14:16:53.124Z,24.30
2022-08-08T14:19:54.218Z,24.40
2022-08-08T14:22:26.826Z,24.10
2022-08-08T14:25:02.344Z,24.20
2022-08-08T14:27:40.320Z,24.10
2022-08-08T14:30:18.153Z,24.40
2022-08-08T14:32:52.785Z,24.50
2022-08-08T14:35:22.113Z,24.40
2022-08-08T14:37:59.914Z,24.50
2022-08-08T14:40:29.914Z,24.60
2022-08-08T14:43:01.761Z,24.60
2022-08-08T14:46:02.400Z,24.80
2022-08-08T14:48:57.316Z,24.90
2022-08-08T14:51:30.989Z,24.80
2022-08-08T14:54:13.508Z,24.70
2022-08-08T14:56:42.919Z,24.30
2022-08-08T14:59:22.394Z,24.50
2022-08-08T15:01:58.640Z,24.70
2022-08-08T15:04:26.321Z,24.90
2022-08-08T15:06:53.072Z,24.70
2022-08-08T15:09:21.705Z,24.40
2022-08-08T15:11:53.074Z,24.30
2022-08-08T15:14:26.455Z,24.50
2022-08-08T15:16:54.048Z,24.50
2022-08-08T15:19:21.436Z,24.00
2022-08-08T15:21:50.520Z,23.70
2022-08-08T15:24:17.228Z,23.80
2022-08-08T15:26:52.209Z,24.00
2022-08-08T15:29:22.684Z,24.10
2022-08-08T15:32:17.917Z,24.20
2022-08-08T15:34:38.676Z,24.00
2022-08-08T15:37:06.014Z,24.00
2022-08-08T15:39:38.435Z,23.90
2022-08-08T15:42:13.220Z,24.00
2022-08-08T15:44:44.953Z,24.20
2022-08-08T15:47:16.259Z,24.10
2022-08-08T15:49:47.926Z,23.90
2022-08-08T15:52:16.472Z,23.50
2022-08-08T15:54:47.667Z,23.50
2022-08-08T16:00:26.794Z,23.60
2022-08-08T16:02:55.685Z,23.70
2022-08-08T16:05:24.377Z,23.90
2022-08-08T16:08:02.406Z,23.60
2022-08-08T16:13:09.722Z,23.70
2022-08-08T16:13:32.235Z,23.80
2022-08-08T16:16:13.494Z,23.80
2022-08-08T16:18:56.414Z,23.80
2022-08-08T16:21:27.180Z,23.80
2022-08-08T16:23:55.356Z,23.90
2022-08-08T16:26:33.711Z,24.40
2022-08-08T16:29:07.817Z,24.70
2022-08-08T16:31:37.157Z,24.90
2022-08-08T16:34:04.102Z,24.90
2022-08-08T16:36:34.492Z,24.30
2022-08-08T16:39:09.939Z,24.30
2022-08-08T16:41:43.418Z,24.30
2022-08-08T16:44:17.927Z,24.30
2022-08-08T16:46:56.355Z,24.20
2022-08-08T16:49:23.144Z,24.30
2022-08-08T16:55:02.808Z,24.30
2022-08-08T16:55:04.471Z,24.40
2022-08-08T16:58:14.213Z,24.60
2022-08-08T17:00:26.886Z,24.50
2022-08-08T17:02:54.044Z,24.60
2022-08-08T17:05:20.689Z,24.60
2022-08-08T17:07:51.182Z,24.60
2022-08-08T17:10:19.278Z,24.80
2022-08-08T17:12:47.087Z,24.60
2022-08-08T17:15:21.202Z,24.40
2022-08-08T17:18:03.342Z,24.10
2022-08-08T17:20:32.542Z,24.00
2022-08-08T17:23:18.270Z,23.90
2022-08-08T17:25:53.432Z,23.70
2022-08-08T17:28:34.160Z,23.80
2022-08-08T17:31:39.620Z,24.00
2022-08-08T17:34:37.279Z,24.00
2022-08-08T17:37:00.017Z,24.10
2022-08-08T17:40:02.831Z,24.10
2022-08-08T17:42:15.965Z,24.20
2022-08-08T17:44:45.238Z,24.30
2022-08-08T17:47:16.019Z,24.20
2022-08-08T17:49:43.361Z,24.10
2022-08-08T17:52:10.339Z,24.20
2022-08-08T17:54:37.389Z,24.30
2022-08-08T17:57:04.438Z,24.20
2022-08-08T17:59:36.043Z,24.10
2022-08-08T18:02:16.386Z,24.10
2022-08-08T18:04:50.849Z,24.40
2022-08-08T18:08:03.376Z,24.90
2022-08-08T18:10:04.936Z,25.50
2022-08-08T18:12:31.675Z,26.00
2022-08-08T18:14:58.670Z,26.20
2022-08-08T18:18:05.030Z,26.20
2022-08-08T18:20:44.409Z,26.10
2022-08-08T18:23:00.658Z,25.80
2022-08-08T18:25:28.582Z,26.00
2022-08-08T18:28:04.504Z,26.20
2022-08-08T18:30:31.903Z,26.30
2022-08-08T18:32:58.769Z,26.20
2022-08-08T18:35:25.491Z,25.90
2022-08-08T18:38:03.704Z,25.50
2022-08-08T18:40:43.424Z,25.00
2022-08-08T18:43:16.171Z,24.70
2022-08-08T18:46:00.529Z,24.60
2022-08-08T18:48:33.259Z,24.60
2022-08-08T18:51:02.220Z,24.50
2022-08-08T18:54:00.425Z,24.30
2022-08-08T18:56:24.090Z,24.20
2022-08-08T18:58:52.032Z,24.00
2022-08-08T19:02:28.490Z,23.80
2022-08-08T19:04:10.781Z,23.60
2022-08-08T19:06:37.926Z,23.50
2022-08-08T19:09:13.280Z,23.40
2022-08-08T19:11:46.678Z,23.20
2022-08-08T19:14:20.406Z,23.10
2022-08-08T19:16:47.823Z,23.00
2022-08-08T19:19:15.247Z,22.80
2022-08-08T19:21:48.861Z,22.70
2022-08-08T19:24:38.824Z,22.60
2022-08-08T19:27:05.784Z,22.60
2022-08-08T19:29:34.541Z,22.40
2022-08-08T19:32:12.560Z,22.40
2022-08-08T19:34:41.775Z,22.40
2022-08-08T19:37:15.990Z,22.40
2022-08-08T19:39:45.589Z,22.30
2022-08-08T19:42:13.490Z,22.30
2022-08-08T19:44:45.566Z,22.20
2022-08-08T19:47:12.866Z,22.00
2022-08-08T19:49:39.582Z,21.90
2022-08-08T19:52:13.317Z,21.90
2022-08-08T19:54:40.300Z,21.90
2022-08-08T19:57:10.047Z,21.70
2022-08-08T19:59:41.195Z,21.50
2022-08-08T20:02:10.576Z,21.60
2022-08-08T20:04:38.307Z,21.50
2022-08-08T20:08:27.868Z,21.40
2022-08-08T20:09:57.163Z,21.40
2022-08-08T20:12:31.983Z,21.50
2022-08-08T20:15:15.140Z,21.40
2022-08-08T20:17:46.312Z,21.30
2022-08-08T20:20:15.943Z,21.10
2022-08-08T20:22:45.613Z,20.90
2022-08-08T20:25:17.491Z,20.90
2022-08-08T20:27:50.243Z,20.80
2022-08-08T20:30:53.585Z,20.50
2022-08-08T20:33:18.500Z,20.40
2022-08-08T20:35:58.493Z,20.40
2022-08-08T20:38:32.877Z,20.20
2022-08-08T20:41:05.840Z,20.20
2022-08-08T20:43:49.197Z,20.20
2022-08-08T20:46:17.259Z,20.20
2022-08-08T20:48:44.208Z,20.10
2022-08-08T20:51:10.866Z,20.00
2022-08-08T20:54:00.993Z,20.20
2022-08-08T20:56:34.944Z,20.20
2022-08-08T20:59:06.006Z,20.00
2022-08-08T21:02:05.298Z,19.90
2022-08-08T21:04:20.738Z,19.90
2022-08-08T21:06:52.655Z,19.80
2022-08-08T21:09:21.607Z,19.70
2022-08-08T21:11:51.285Z,19.70
2022-08-08T21:14:30.260Z,19.60
2022-08-08T21:17:02.052Z,19.40
2022-08-08T21:19:44.258Z,19.40
2022-08-08T21:22:13.761Z,19.30
2022-08-08T21:24:41.896Z,19.40
2022-08-08T21:28:06.756Z,19.40
2022-08-08T21:30:12.147Z,19.30
2022-08-08T21:32:51.629Z,19.20
2022-08-08T21:36:18.666Z,19.20
2022-08-08T21:38:17.250Z,19.30
2022-08-08T21:40:55.709Z,19.10
2022-08-08T21:43:24.986Z,19.10
2022-08-08T21:48:03.731Z,19.00
2022-08-08T21:48:41.756Z,18.90
2022-08-08T21:51:16.171Z,18.80
2022-08-08T21:54:27.450Z,18.80
2022-08-08T21:56:42.045Z,18.80
2022-08-08T21:59:10.897Z,18.80
2022-08-08T22:01:42.666Z,18.70
2022-08-08T22:04:10.537Z,18.60
2022-08-08T22:06:40.410Z,18.50
2022-08-08T22:09:08.980Z,18.50
2022-08-08T22:12:03.138Z,18.40
2022-08-08T22:14:23.910Z,18.40
2022-08-08T22:16:54.041Z,18.40
2022-08-08T22:19:24.086Z,18.30
2022-08-08T22:21:51.817Z,18.30
2022-08-08T22:24:23.991Z,18.30
2022-08-08T22:27:01.769Z,18.20
2022-08-08T22:29:59.718Z,18.10
2022-08-08T22:32:17.918Z,18.10
2022-08-08T22:34:50.759Z,17.90
2022-08-08T22:37:49.041Z,17.90
2022-08-08T22:40:07.170Z,17.90
2022-08-08T22:42:38.709Z,18.00
2022-08-08T22:45:12.591Z,18.00
2022-08-08T22:47:41.204Z,18.00
2022-08-08T22:50:26.035Z,18.00
2022-08-08T22:53:22.356Z,18.10
2022-08-08T22:55:59.042Z,18.10
2022-08-08T22:58:28.805Z,18.00
2022-08-08T23:00:58.117Z,18.00
2022-08-08T23:03:34.413Z,18.00
2022-08-08T23:06:14.482Z,17.90
2022-08-08T23:08:44.543Z,17.80
2022-08-08T23:12:17.970Z,17.80
2022-08-08T23:14:14.486Z,17.70
2022-08-08T23:16:44.229Z,17.80
2022-08-08T23:19:15.311Z,18.00
2022-08-08T23:21:42.354Z,18.20
2022-08-08T23:24:09.263Z,18.30
2022-08-08T23:26:35.904Z,18.40
2022-08-08T23:29:04.464Z,18.30
2022-08-08T23:31:38.912Z,18.30
2022-08-08T23:34:17.030Z,18.30
2022-08-08T23:36:46.445Z,18.20
2022-08-08T23:39:13.426Z,18.20
2022-08-08T23:41:45.468Z,18.10
2022-08-08T23:44:12.970Z,17.90
2022-08-08T23:49:02.733Z,17.90
2022-08-08T23:49:26.395Z,17.90
2022-08-08T23:52:06.147Z,18.00
2022-08-08T23:54:42.046Z,18.10
2022-08-08T23:57:25.293Z,18.20
